sensor_id;sensor_type;location;lat;lon;timestamp;pressure;altitude;pressure_sealevel;temperature;humidity
80180;BME280;69505;52.134;5.438;2024-03-06T00:00:04;102003.41;;;5.42;100.00
80180;BME280;69505;52.134;5.438;2024-03-06T00:02:31;102000.75;;;5.42;100.00
80180;BME280;69505;52.134;5.438;2024-03-06T00:04:58;102005.31;;;5.37;100.00
80180;BME280;69505;52.134;5.438;2024-03-06T00:07:25;102002.81;;;5.34;100.00
80180;BME280;69505;52.134;5.438;2024-03-06T00:09:53;102010.97;;;5.26;100.00
80180;BME280;69505;52.134;5.438;2024-03-06T00:12:19;102018.25;;;5.19;100.00
80180;BME280;69505;52.134;5.438;2024-03-06T00:14:46;102026.19;;;5.18;100.00
80180;BME280;69505;52.134;5.438;2024-03-06T00:17:13;102029.75;;;5.17;100.00
80180;BME280;69505;52.134;5.438;2024-03-06T00:19:40;102027.94;;;5.19;100.00
80180;BME280;69505;52.134;5.438;2024-03-06T00:22:07;102026.81;;;5.24;100.00
80180;BME280;69505;52.134;5.438;2024-03-06T00:24:33;102025.00;;;5.26;100.00
80180;BME280;69505;52.134;5.438;2024-03-06T00:27:00;102030.19;;;5.29;100.00
80180;BME280;69505;52.134;5.438;2024-03-06T00:29:28;102028.41;;;5.30;100.00
80180;BME280;69505;52.134;5.438;2024-03-06T00:31:58;102031.88;;;5.31;100.00
80180;BME280;69505;52.134;5.438;2024-03-06T00:34:25;102037.19;;;5.29;100.00
80180;BME280;69505;52.134;5.438;2024-03-06T00:36:53;102032.97;;;5.25;100.00
80180;BME280;69505;52.134;5.438;2024-03-06T00:39:20;102039.16;;;5.24;100.00
80180;BME280;69505;52.134;5.438;2024-03-06T00:41:48;102047.03;;;5.24;100.00
80180;BME280;69505;52.134;5.438;2024-03-06T00:44:15;102048.03;;;5.21;100.00
80180;BME280;69505;52.134;5.438;2024-03-06T00:46:41;102045.22;;;5.26;100.00
80180;BME280;69505;52.134;5.438;2024-03-06T00:49:08;102043.56;;;5.23;100.00
80180;BME280;69505;52.134;5.438;2024-03-06T00:51:35;102050.59;;;5.23;100.00
80180;BME280;69505;52.134;5.438;2024-03-06T00:54:14;102040.88;;;5.25;100.00
80180;BME280;69505;52.134;5.438;2024-03-06T00:56:40;102054.94;;;5.24;100.00
80180;BME280;69505;52.134;5.438;2024-03-06T00:59:07;102058.34;;;5.27;100.00
80180;BME280;69505;52.134;5.438;2024-03-06T01:01:34;102053.97;;;5.26;100.00
80180;BME280;69505;52.134;5.438;2024-03-06T01:04:01;102052.31;;;5.24;100.00
80180;BME280;69505;52.134;5.438;2024-03-06T01:06:28;102061.16;;;5.23;100.00
80180;BME280;69505;52.134;5.438;2024-03-06T01:08:55;102053.38;;;5.18;100.00
80180;BME280;69505;52.134;5.438;2024-03-06T01:11:24;102066.53;;;5.18;100.00
80180;BME280;69505;52.134;5.438;2024-03-06T01:13:50;102062.09;;;5.20;100.00
80180;BME280;69505;52.134;5.438;2024-03-06T01:16:17;102072.53;;;5.23;100.00
80180;BME280;69505;52.134;5.438;2024-03-06T01:18:43;102073.44;;;5.22;100.00
80180;BME280;69505;52.134;5.438;2024-03-06T01:21:10;102072.53;;;5.23;100.00
80180;BME280;69505;52.134;5.438;2024-03-06T01:23:37;102070.72;;;5.25;100.00
80180;BME280;69505;52.134;5.438;2024-03-06T01:26:03;102076.78;;;5.27;100.00
80180;BME280;69505;52.134;5.438;2024-03-06T01:28:30;102075.84;;;5.28;100.00
80180;BME280;69505;52.134;5.438;2024-03-06T01:31:00;102079.28;;;5.31;100.00
80180;BME280;69505;52.134;5.438;2024-03-06T01:33:27;102081.84;;;5.34;100.00
80180;BME280;69505;52.134;5.438;2024-03-06T01:35:53;102090.59;;;5.34;100.00
80180;BME280;69505;52.134;5.438;2024-03-06T01:38:20;102086.19;;;5.35;100.00
80180;BME280;69505;52.134;5.438;2024-03-06T01:40:47;102089.63;;;5.37;100.00
80180;BME280;69505;52.134;5.438;2024-03-06T01:43:21;102087.78;;;5.39;100.00
80180;BME280;69505;52.134;5.438;2024-03-06T01:45:52;102087.78;;;5.39;100.00
80180;BME280;69505;52.134;5.438;2024-03-06T01:48:23;102085.16;;;5.39;100.00
80180;BME280;69505;52.134;5.438;2024-03-06T01:50:54;102083.34;;;5.41;100.00
80180;BME280;69505;52.134;5.438;2024-03-06T01:53:22;102078.91;;;5.41;100.00
80180;BME280;69505;52.134;5.438;2024-03-06T01:55:51;102081.66;;;5.38;100.00
80180;BME280;69505;52.134;5.438;2024-03-06T01:58:18;102088.00;;;5.33;100.00
80180;BME280;69505;52.134;5.438;2024-03-06T02:00:49;102089.19;;;5.24;100.00
80180;BME280;69505;52.134;5.438;2024-03-06T02:03:17;102080.81;;;5.13;100.00
80180;BME280;69505;52.134;5.438;2024-03-06T02:05:44;102083.69;;;5.05;100.00
80180;BME280;69505;52.134;5.438;2024-03-06T02:08:11;102091.94;;;4.94;100.00
80180;BME280;69505;52.134;5.438;2024-03-06T02:10:37;102094.03;;;4.83;100.00
80180;BME280;69505;52.134;5.438;2024-03-06T02:13:04;102092.66;;;4.73;100.00
80180;BME280;69505;52.134;5.438;2024-03-06T02:15:30;102101.63;;;4.65;100.00
80180;BME280;69505;52.134;5.438;2024-03-06T02:17:57;102095.72;;;4.59;100.00
80180;BME280;69505;52.134;5.438;2024-03-06T02:20:25;102094.09;;;4.55;100.00
80180;BME280;69505;52.134;5.438;2024-03-06T02:22:51;102090.00;;;4.44;100.00
80180;BME280;69505;52.134;5.438;2024-03-06T02:25:19;102097.22;;;4.38;100.00
80180;BME280;69505;52.134;5.438;2024-03-06T02:27:46;102092.19;;;4.30;100.00
80180;BME280;69505;52.134;5.438;2024-03-06T02:30:14;102095.00;;;4.24;100.00
80180;BME280;69505;52.134;5.438;2024-03-06T02:32:41;102095.13;;;4.21;100.00
80180;BME280;69505;52.134;5.438;2024-03-06T02:35:10;102095.31;;;4.15;100.00
80180;BME280;69505;52.134;5.438;2024-03-06T02:37:37;102098.94;;;4.11;100.00
80180;BME280;69505;52.134;5.438;2024-03-06T02:40:05;102105.03;;;4.11;100.00
80180;BME280;69505;52.134;5.438;2024-03-06T02:42:33;102098.94;;;4.11;100.00
80180;BME280;69505;52.134;5.438;2024-03-06T02:45:00;102100.72;;;4.09;100.00
80180;BME280;69505;52.134;5.438;2024-03-06T02:47:26;102108.66;;;4.07;100.00
80180;BME280;69505;52.134;5.438;2024-03-06T02:49:53;102104.34;;;4.04;100.00
80180;BME280;69505;52.134;5.438;2024-03-06T02:52:20;102102.66;;;4.03;100.00
80180;BME280;69505;52.134;5.438;2024-03-06T02:54:46;102101.03;;;3.99;100.00
80180;BME280;69505;52.134;5.438;2024-03-06T02:57:13;102103.66;;;3.99;100.00
80180;BME280;69505;52.134;5.438;2024-03-06T02:59:40;102097.66;;;3.94;100.00
80180;BME280;69505;52.134;5.438;2024-03-06T03:02:07;102099.44;;;3.92;100.00
80180;BME280;69505;52.134;5.438;2024-03-06T03:04:33;102104.88;;;3.86;100.00
80180;BME280;69505;52.134;5.438;2024-03-06T03:07:00;102115.56;;;3.80;100.00
80180;BME280;69505;52.134;5.438;2024-03-06T03:09:27;102112.13;;;3.78;100.00
80180;BME280;69505;52.134;5.438;2024-03-06T03:11:54;102110.25;;;3.83;100.00
80180;BME280;69505;52.134;5.438;2024-03-06T03:14:20;102116.38;;;3.82;100.00
80180;BME280;69505;52.134;5.438;2024-03-06T03:16:47;102113.75;;;3.82;100.00
80180;BME280;69505;52.134;5.438;2024-03-06T03:19:14;102116.22;;;3.88;100.00
80180;BME280;69505;52.134;5.438;2024-03-06T03:21:44;102115.31;;;3.89;100.00
80180;BME280;69505;52.134;5.438;2024-03-06T03:24:11;102110.13;;;3.86;100.00
80180;BME280;69505;52.134;5.438;2024-03-06T03:26:38;102113.75;;;3.82;100.00
80180;BME280;69505;52.134;5.438;2024-03-06T03:29:04;102118.47;;;3.71;100.00
80180;BME280;69505;52.134;5.438;2024-03-06T03:31:31;102124.69;;;3.66;100.00
80180;BME280;69505;52.134;5.438;2024-03-06T03:33:59;102119.53;;;3.63;100.00
80180;BME280;69505;52.134;5.438;2024-03-06T03:36:26;102123.84;;;3.66;100.00
80180;BME280;69505;52.134;5.438;2024-03-06T03:38:52;102110.75;;;3.64;100.00
80180;BME280;69505;52.134;5.438;2024-03-06T03:41:19;102116.16;;;3.58;100.00
80180;BME280;69505;52.134;5.438;2024-03-06T03:43:46;102124.31;;;3.49;100.00
80180;BME280;69505;52.134;5.438;2024-03-06T03:46:12;102123.59;;;3.42;100.00
80180;BME280;69505;52.134;5.438;2024-03-06T03:48:40;102128.91;;;3.39;100.00
80180;BME280;69505;52.134;5.438;2024-03-06T03:51:06;102132.53;;;3.35;100.00
80180;BME280;69505;52.134;5.438;2024-03-06T03:53:34;102130.00;;;3.32;100.00
80180;BME280;69505;52.134;5.438;2024-03-06T03:56:01;102136.06;;;3.34;100.00
80180;BME280;69505;52.134;5.438;2024-03-06T03:58:29;102134.19;;;3.38;100.00
80180;BME280;69505;52.134;5.438;2024-03-06T04:00:56;102134.28;;;3.35;100.00
80180;BME280;69505;52.134;5.438;2024-03-06T04:03:23;102136.78;;;3.39;100.00
80180;BME280;69505;52.134;5.438;2024-03-06T04:05:51;102138.53;;;3.40;100.00
80180;BME280;69505;52.134;5.438;2024-03-06T04:08:17;102137.59;;;3.43;100.00
80180;BME280;69505;52.134;5.438;2024-03-06T04:10:44;102139.34;;;3.42;100.00
80180;BME280;69505;52.134;5.438;2024-03-06T04:13:11;102132.66;;;3.31;100.00
80180;BME280;69505;52.134;5.438;2024-03-06T04:15:39;102140.78;;;3.21;100.00
80180;BME280;69505;52.134;5.438;2024-03-06T04:18:05;102139.03;;;3.20;100.00
80180;BME280;69505;52.134;5.438;2024-03-06T04:20:32;102138.19;;;3.18;100.00
80180;BME280;69505;52.134;5.438;2024-03-06T04:22:59;102139.94;;;3.19;100.00
80180;BME280;69505;52.134;5.438;2024-03-06T04:25:25;102139.94;;;3.19;100.00
80180;BME280;69505;52.134;5.438;2024-03-06T04:27:52;102136.66;;;3.11;100.00
80180;BME280;69505;52.134;5.438;2024-03-06T04:30:19;102142.97;;;3.02;100.00
80180;BME280;69505;52.134;5.438;2024-03-06T04:32:45;102143.97;;;2.97;100.00
80180;BME280;69505;52.134;5.438;2024-03-06T04:35:12;102151.09;;;2.92;100.00
80180;BME280;69505;52.134;5.438;2024-03-06T04:37:39;102149.44;;;2.88;100.00
80180;BME280;69505;52.134;5.438;2024-03-06T04:40:06;102160.81;;;2.88;100.00
80180;BME280;69505;52.134;5.438;2024-03-06T04:42:36;102157.41;;;2.83;100.00
80180;BME280;69505;52.134;5.438;2024-03-06T04:45:08;102160.00;;;2.84;100.00
80180;BME280;69505;52.134;5.438;2024-03-06T04:47:35;102165.34;;;2.81;100.00
80180;BME280;69505;52.134;5.438;2024-03-06T04:50:02;102162.66;;;2.83;100.00
80180;BME280;69505;52.134;5.438;2024-03-06T04:52:28;102174.19;;;2.77;100.00
80180;BME280;69505;52.134;5.438;2024-03-06T04:54:55;102171.75;;;2.68;100.00
80180;BME280;69505;52.134;5.438;2024-03-06T04:57:21;102173.63;;;2.63;100.00
80180;BME280;69505;52.134;5.438;2024-03-06T04:59:48;102175.41;;;2.61;100.00
80180;BME280;69505;52.134;5.438;2024-03-06T05:02:15;102173.06;;;2.49;100.00
80180;BME280;69505;52.134;5.438;2024-03-06T05:04:41;102179.25;;;2.44;100.00
80180;BME280;69505;52.134;5.438;2024-03-06T05:07:28;102177.53;;;2.43;100.00
80180;BME280;69505;52.134;5.438;2024-03-06T05:10:12;102180.13;;;2.43;100.00
80180;BME280;69505;52.134;5.438;2024-03-06T05:12:55;102181.81;;;2.48;100.00
80180;BME280;69505;52.134;5.438;2024-03-06T05:15:39;102180.00;;;2.51;100.00
80180;BME280;69505;52.134;5.438;2024-03-06T05:18:23;102184.28;;;2.55;100.00
80180;BME280;69505;52.134;5.438;2024-03-06T05:21:07;102192.13;;;2.57;100.00
80180;BME280;69505;52.134;5.438;2024-03-06T05:23:52;102203.59;;;2.51;100.00
80180;BME280;69505;52.134;5.438;2024-03-06T05:26:36;102206.34;;;2.43;100.00
80180;BME280;69505;52.134;5.438;2024-03-06T05:29:20;102208.16;;;2.41;100.00
80180;BME280;69505;52.134;5.438;2024-03-06T05:32:04;102208.16;;;2.41;100.00
80180;BME280;69505;52.134;5.438;2024-03-06T05:34:48;102217.75;;;2.42;100.00
80180;BME280;69505;52.134;5.438;2024-03-06T05:37:32;102211.66;;;2.42;100.00
80180;BME280;69505;52.134;5.438;2024-03-06T05:40:16;102216.91;;;2.40;100.00
80180;BME280;69505;52.134;5.438;2024-03-06T05:43:00;102221.34;;;2.37;100.00
80180;BME280;69505;52.134;5.438;2024-03-06T05:45:44;102222.38;;;2.31;100.00
80180;BME280;69505;52.134;5.438;2024-03-06T05:48:27;102225.81;;;2.33;100.00
80180;BME280;69505;52.134;5.438;2024-03-06T05:51:11;102226.66;;;2.35;100.00
80180;BME280;69505;52.134;5.438;2024-03-06T05:53:56;102233.72;;;2.30;100.00
80180;BME280;69505;52.134;5.438;2024-03-06T05:56:40;102232.19;;;2.20;100.00
80180;BME280;69505;52.134;5.438;2024-03-06T05:59:25;102241.91;;;2.15;100.00
80180;BME280;69505;52.134;5.438;2024-03-06T06:01:52;102248.00;;;2.14;100.00
80180;BME280;69505;52.134;5.438;2024-03-06T06:04:19;102248.00;;;2.14;100.00
80180;BME280;69505;52.134;5.438;2024-03-06T06:06:46;102255.00;;;2.15;100.00
80180;BME280;69505;52.134;5.438;2024-03-06T06:09:12;102262.88;;;2.15;100.00
80180;BME280;69505;52.134;5.438;2024-03-06T06:11:42;102268.16;;;2.12;100.00
80180;BME280;69505;52.134;5.438;2024-03-06T06:14:10;102269.03;;;2.12;100.00
80180;BME280;69505;52.134;5.438;2024-03-06T06:16:41;102274.28;;;2.12;100.00
80180;BME280;69505;52.134;5.438;2024-03-06T06:19:08;102273.38;;;2.12;100.00
80180;BME280;69505;52.134;5.438;2024-03-06T06:21:35;102274.34;;;2.08;100.00
80180;BME280;69505;52.134;5.438;2024-03-06T06:24:03;102273.47;;;2.07;100.00
80180;BME280;69505;52.134;5.438;2024-03-06T06:26:30;102279.63;;;2.06;100.00
80180;BME280;69505;52.134;5.438;2024-03-06T06:28:57;102281.34;;;2.07;100.00
80180;BME280;69505;52.134;5.438;2024-03-06T06:31:24;102289.16;;;2.10;100.00
80180;BME280;69505;52.134;5.438;2024-03-06T06:33:53;102291.72;;;2.13;100.00
80180;BME280;69505;52.134;5.438;2024-03-06T06:36:19;102297.88;;;2.11;100.00
80180;BME280;69505;52.134;5.438;2024-03-06T06:38:47;102295.28;;;2.09;100.00
80180;BME280;69505;52.134;5.438;2024-03-06T06:41:14;102297.81;;;2.14;100.00
80180;BME280;69505;52.134;5.438;2024-03-06T06:43:41;102308.22;;;2.18;100.00
80180;BME280;69505;52.134;5.438;2024-03-06T06:46:08;102309.88;;;2.22;100.00
80180;BME280;69505;52.134;5.438;2024-03-06T06:48:35;102315.06;;;2.27;100.00
80180;BME280;69505;52.134;5.438;2024-03-06T06:51:02;102322.84;;;2.32;100.00
80180;BME280;69505;52.134;5.438;2024-03-06T06:53:32;102318.47;;;2.31;100.00
80180;BME280;69505;52.134;5.438;2024-03-06T06:55:58;102327.16;;;2.34;100.00
80180;BME280;69505;52.134;5.438;2024-03-06T06:58:25;102329.69;;;2.39;100.00
80180;BME280;69505;52.134;5.438;2024-03-06T07:00:53;102331.41;;;2.40;100.00
80180;BME280;69505;52.134;5.438;2024-03-06T07:03:20;102335.66;;;2.46;100.00
80180;BME280;69505;52.134;5.438;2024-03-06T07:05:49;102344.38;;;2.48;100.00
80180;BME280;69505;52.134;5.438;2024-03-06T07:08:16;102351.22;;;2.56;100.00
80180;BME280;69505;52.134;5.438;2024-03-06T07:10:43;102351.13;;;2.61;100.00
80180;BME280;69505;52.134;5.438;2024-03-06T07:13:09;102349.28;;;2.66;100.00
80180;BME280;69505;52.134;5.438;2024-03-06T07:15:37;102359.59;;;2.75;100.00
80180;BME280;69505;52.134;5.438;2024-03-06T07:18:04;102358.69;;;2.76;100.00
80180;BME280;69505;52.134;5.438;2024-03-06T07:20:31;102356.16;;;2.73;100.00
80180;BME280;69505;52.134;5.438;2024-03-06T07:22:58;102358.59;;;2.81;100.00
80180;BME280;69505;52.134;5.438;2024-03-06T07:25:25;102360.16;;;2.91;100.00
80180;BME280;69505;52.134;5.438;2024-03-06T07:27:52;102363.50;;;2.98;100.00
80180;BME280;69505;52.134;5.438;2024-03-06T07:30:19;102370.41;;;3.03;100.00
80180;BME280;69505;52.134;5.438;2024-03-06T07:32:46;102368.53;;;3.09;100.00
80180;BME280;69505;52.134;5.438;2024-03-06T07:35:12;102368.56;;;3.07;100.00
80180;BME280;69505;52.134;5.438;2024-03-06T07:37:39;102370.25;;;3.11;100.00
80180;BME280;69505;52.134;5.438;2024-03-06T07:40:07;102366.53;;;3.21;100.00
80180;BME280;69505;52.134;5.438;2024-03-06T07:42:36;102371.69;;;3.24;100.00
80180;BME280;69505;52.134;5.438;2024-03-06T07:45:12;102369.78;;;3.33;100.00
80180;BME280;69505;52.134;5.438;2024-03-06T07:47:39;102380.91;;;3.44;100.00
80180;BME280;69505;52.134;5.438;2024-03-06T07:50:06;102371.94;;;3.53;100.00
80180;BME280;69505;52.134;5.438;2024-03-06T07:52:33;102377.91;;;3.61;100.00
80180;BME280;69505;52.134;5.438;2024-03-06T07:54:59;102381.31;;;3.64;100.00
80180;BME280;69505;52.134;5.438;2024-03-06T07:57:26;102387.38;;;3.68;100.00
80180;BME280;69505;52.134;5.438;2024-03-06T07:59:53;102387.28;;;3.73;100.00
80180;BME280;69505;52.134;5.438;2024-03-06T08:02:21;102395.97;;;3.75;100.00
80180;BME280;69505;52.134;5.438;2024-03-06T08:04:48;102395.69;;;3.87;100.00
80180;BME280;69505;52.134;5.438;2024-03-06T08:07:15;102408.72;;;3.92;100.00
80180;BME280;69505;52.134;5.438;2024-03-06T08:09:41;102409.28;;;4.04;100.00
80180;BME280;69505;52.134;5.438;2024-03-06T08:12:09;102401.28;;;4.09;100.00
80180;BME280;69505;52.134;5.438;2024-03-06T08:14:36;102404.63;;;4.16;100.00
80180;BME280;69505;52.134;5.438;2024-03-06T08:17:03;102405.31;;;4.24;100.00
80180;BME280;69505;52.134;5.438;2024-03-06T08:19:30;102407.78;;;4.30;100.00
80180;BME280;69505;52.134;5.438;2024-03-06T08:21:57;102403.13;;;4.41;100.00
80180;BME280;69505;52.134;5.438;2024-03-06T08:24:23;102409.97;;;4.47;100.00
80180;BME280;69505;52.134;5.438;2024-03-06T08:26:50;102415.00;;;4.58;100.00
80180;BME280;69505;52.134;5.438;2024-03-06T08:29:17;102417.53;;;4.61;100.00
80180;BME280;69505;52.134;5.438;2024-03-06T08:31:44;102418.09;;;4.72;100.00
80180;BME280;69505;52.134;5.438;2024-03-06T08:34:10;102420.63;;;4.77;100.00
80180;BME280;69505;52.134;5.438;2024-03-06T08:36:37;102425.69;;;4.83;100.00
80180;BME280;69505;52.134;5.438;2024-03-06T08:39:04;102430.78;;;4.89;100.00
80180;BME280;69505;52.134;5.438;2024-03-06T08:41:31;102433.22;;;4.97;100.00
80180;BME280;69505;52.134;5.438;2024-03-06T08:43:58;102435.56;;;5.07;100.00
80180;BME280;69505;52.134;5.438;2024-03-06T08:46:24;102436.47;;;5.06;100.00
80180;BME280;69505;52.134;5.438;2024-03-06T08:48:51;102443.94;;;5.22;100.00
80180;BME280;69505;52.134;5.438;2024-03-06T08:51:18;102446.25;;;5.33;100.00
80180;BME280;69505;52.134;5.438;2024-03-06T08:53:44;102448.00;;;5.34;100.00
80180;BME280;69505;52.134;5.438;2024-03-06T08:56:11;102447.81;;;5.40;100.00
80180;BME280;69505;52.134;5.438;2024-03-06T08:58:38;102456.44;;;5.45;100.00
80180;BME280;69505;52.134;5.438;2024-03-06T09:01:05;102456.16;;;5.54;100.00
80180;BME280;69505;52.134;5.438;2024-03-06T09:03:31;102462.00;;;5.65;100.00
80180;BME280;69505;52.134;5.438;2024-03-06T09:05:58;102461.53;;;5.81;100.00
80180;BME280;69505;52.134;5.438;2024-03-06T09:08:26;102462.94;;;5.93;100.00
80180;BME280;69505;52.134;5.438;2024-03-06T09:10:53;102472.50;;;5.97;100.00
80180;BME280;69505;52.134;5.438;2024-03-06T09:13:19;102475.19;;;5.94;100.00
80180;BME280;69505;52.134;5.438;2024-03-06T09:15:46;102476.25;;;5.88;100.00
80180;BME280;69505;52.134;5.438;2024-03-06T09:18:13;102473.19;;;6.03;100.00
80180;BME280;69505;52.134;5.438;2024-03-06T09:20:39;102467.59;;;6.13;100.00
80180;BME280;69505;52.134;5.438;2024-03-06T09:23:06;102479.63;;;6.21;100.00
80180;BME280;69505;52.134;5.438;2024-03-06T09:25:33;102480.31;;;6.28;100.00
80180;BME280;69505;52.134;5.438;2024-03-06T09:27:59;102483.34;;;6.42;100.00
80180;BME280;69505;52.134;5.438;2024-03-06T09:30:31;102487.41;;;6.53;100.00
80180;BME280;69505;52.134;5.438;2024-03-06T09:32:57;102493.50;;;6.55;100.00
80180;BME280;69505;52.134;5.438;2024-03-06T09:35:24;102500.41;;;6.59;100.00
80180;BME280;69505;52.134;5.438;2024-03-06T09:37:51;102494.91;;;6.65;100.00
80180;BME280;69505;52.134;5.438;2024-03-06T09:40:22;102498.00;;;6.78;100.00
80180;BME280;69505;52.134;5.438;2024-03-06T09:42:49;102510.03;;;6.86;100.00
80180;BME280;69505;52.134;5.438;2024-03-06T09:45:17;102505.94;;;7.03;100.00
80180;BME280;69505;52.134;5.438;2024-03-06T09:47:47;102517.09;;;7.11;100.00
80180;BME280;69505;52.134;5.438;2024-03-06T09:50:16;102515.22;;;7.15;100.00
80180;BME280;69505;52.134;5.438;2024-03-06T09:52:50;102506.50;;;7.13;100.00
80180;BME280;69505;52.134;5.438;2024-03-06T09:55:18;102519.31;;;7.23;100.00
80180;BME280;69505;52.134;5.438;2024-03-06T09:57:44;102521.34;;;7.40;100.00
80180;BME280;69505;52.134;5.438;2024-03-06T10:00:11;102520.38;;;7.43;100.00
80180;BME280;69505;52.134;5.438;2024-03-06T10:02:48;102519.97;;;7.53;100.00
80180;BME280;69505;52.134;5.438;2024-03-06T10:05:21;102535.22;;;7.70;100.00
80180;BME280;69505;52.134;5.438;2024-03-06T10:07:50;102533.50;;;7.69;100.00
80180;BME280;69505;52.134;5.438;2024-03-06T10:10:20;102527.06;;;7.77;100.00
80180;BME280;69505;52.134;5.438;2024-03-06T10:12:49;102532.06;;;7.84;100.00
80180;BME280;69505;52.134;5.438;2024-03-06T10:15:16;102528.78;;;8.01;100.00
80180;BME280;69505;52.134;5.438;2024-03-06T10:17:43;102531.06;;;7.87;100.00
80180;BME280;69505;52.134;5.438;2024-03-06T10:20:17;102533.81;;;7.85;100.00
80180;BME280;69505;52.134;5.438;2024-03-06T10:22:53;102539.47;;;7.98;100.00
80180;BME280;69505;52.134;5.438;2024-03-06T10:25:24;102536.38;;;7.87;100.00
80180;BME280;69505;52.134;5.438;2024-03-06T10:28:09;102536.69;;;7.79;100.00
80180;BME280;69505;52.134;5.438;2024-03-06T10:30:37;102531.03;;;8.10;100.00
80180;BME280;69505;52.134;5.438;2024-03-06T10:33:04;102530.03;;;8.59;100.00
80180;BME280;69505;52.134;5.438;2024-03-06T10:35:35;102538.50;;;8.46;100.00
80180;BME280;69505;52.134;5.438;2024-03-06T10:38:06;102538.97;;;8.56;100.00
80180;BME280;69505;52.134;5.438;2024-03-06T10:40:38;102543.59;;;8.51;100.00
80180;BME280;69505;52.134;5.438;2024-03-06T10:43:06;102539.81;;;8.57;100.00
80180;BME280;69505;52.134;5.438;2024-03-06T10:45:54;102545.22;;;8.55;100.00
80180;BME280;69505;52.134;5.438;2024-03-06T10:48:27;102540.03;;;8.52;100.00
80180;BME280;69505;52.134;5.438;2024-03-06T10:50:55;102542.75;;;8.50;100.00
80180;BME280;69505;52.134;5.438;2024-03-06T10:53:25;102543.72;;;8.70;100.00
80180;BME280;69505;52.134;5.438;2024-03-06T10:55:56;102547.38;;;9.08;100.00
80180;BME280;69505;52.134;5.438;2024-03-06T10:58:25;102550.63;;;9.15;100.00
80180;BME280;69505;52.134;5.438;2024-03-06T11:00:52;102554.47;;;8.87;100.00
80180;BME280;69505;52.134;5.438;2024-03-06T11:03:19;102546.50;;;8.87;100.00
80180;BME280;69505;52.134;5.438;2024-03-06T11:05:46;102546.25;;;8.93;100.00
80180;BME280;69505;52.134;5.438;2024-03-06T11:08:18;102552.56;;;8.91;100.00
80180;BME280;69505;52.134;5.438;2024-03-06T11:10:45;102556.34;;;9.06;100.00
80180;BME280;69505;52.134;5.438;2024-03-06T11:13:23;102550.78;;;9.12;100.00
80180;BME280;69505;52.134;5.438;2024-03-06T11:15:52;102556.06;;;9.12;100.00
80180;BME280;69505;52.134;5.438;2024-03-06T11:18:40;102564.03;;;9.12;100.00
80180;BME280;69505;52.134;5.438;2024-03-06T11:24:18;102567.66;;;8.89;100.00
80180;BME280;69505;52.134;5.438;2024-03-06T11:26:56;102561.56;;;8.65;100.00
80180;BME280;69505;52.134;5.438;2024-03-06T11:32:59;102559.22;;;8.79;100.00
80180;BME280;69505;52.134;5.438;2024-03-06T11:35:28;102558.84;;;8.88;100.00
80180;BME280;69505;52.134;5.438;2024-03-06T11:37:55;102560.69;;;8.86;100.00
80180;BME280;69505;52.134;5.438;2024-03-06T11:40:25;102565.84;;;8.89;100.00
80180;BME280;69505;52.134;5.438;2024-03-06T11:42:51;102565.59;;;8.96;100.00
80180;BME280;69505;52.134;5.438;2024-03-06T11:45:19;102571.31;;;8.86;100.00
80180;BME280;69505;52.134;5.438;2024-03-06T11:47:59;102561.75;;;8.82;100.00
80180;BME280;69505;52.134;5.438;2024-03-06T11:50:27;102570.31;;;8.89;100.00
80180;BME280;69505;52.134;5.438;2024-03-06T11:52:55;102569.78;;;9.01;100.00
80180;BME280;69505;52.134;5.438;2024-03-06T11:55:24;102567.75;;;9.08;100.00
80180;BME280;69505;52.134;5.438;2024-03-06T11:58:09;102567.94;;;9.03;100.00
80180;BME280;69505;52.134;5.438;2024-03-06T12:00:38;102575.94;;;9.02;100.00
80180;BME280;69505;52.134;5.438;2024-03-06T12:03:04;102569.66;;;9.04;100.00
80180;BME280;69505;52.134;5.438;2024-03-06T12:05:32;102579.13;;;9.10;100.00
80180;BME280;69505;52.134;5.438;2024-03-06T12:07:58;102568.81;;;9.24;100.00
80180;BME280;69505;52.134;5.438;2024-03-06T12:10:25;102577.47;;;9.28;100.00
80180;BME280;69505;52.134;5.438;2024-03-06T12:12:52;102574.75;;;9.29;100.00
80180;BME280;69505;52.134;5.438;2024-03-06T12:15:18;102570.94;;;9.37;100.00
80180;BME280;69505;52.134;5.438;2024-03-06T12:17:48;102574.81;;;9.48;100.00
80180;BME280;69505;52.134;5.438;2024-03-06T12:20:18;102582.88;;;9.66;100.00
80180;BME280;69505;52.134;5.438;2024-03-06T12:22:49;102573.25;;;9.63;100.00
80180;BME280;69505;52.134;5.438;2024-03-06T12:25:23;102580.44;;;9.61;100.00
80180;BME280;69505;52.134;5.438;2024-03-06T12:27:50;102580.56;;;9.79;100.00
80180;BME280;69505;52.134;5.438;2024-03-06T12:30:21;102581.94;;;9.87;100.00
80180;BME280;69505;52.134;5.438;2024-03-06T12:32:59;102583.94;;;10.01;100.00
80180;BME280;69505;52.134;5.438;2024-03-06T12:35:26;102578.72;;;10.19;100.00
80180;BME280;69505;52.134;5.438;2024-03-06T12:37:53;102573.78;;;10.30;100.00
80180;BME280;69505;52.134;5.438;2024-03-06T12:40:20;102576.94;;;10.38;100.00
80180;BME280;69505;52.134;5.438;2024-03-06T12:42:47;102578.28;;;10.47;100.00
80180;BME280;69505;52.134;5.438;2024-03-06T12:45:16;102575.94;;;10.58;100.00
80180;BME280;69505;52.134;5.438;2024-03-06T12:47:47;102577.16;;;10.70;100.00
80180;BME280;69505;52.134;5.438;2024-03-06T12:50:16;102580.28;;;10.78;100.00
80180;BME280;69505;52.134;5.438;2024-03-06T12:52:43;102577.50;;;10.99;100.00
80180;BME280;69505;52.134;5.438;2024-03-06T12:55:12;102574.22;;;11.11;100.00
80180;BME280;69505;52.134;5.438;2024-03-06T12:57:40;102569.91;;;11.26;100.00
80180;BME280;69505;52.134;5.438;2024-03-06T13:00:07;102563.84;;;11.40;100.00
80180;BME280;69505;52.134;5.438;2024-03-06T13:02:43;102568.72;;;11.49;99.97
80180;BME280;69505;52.134;5.438;2024-03-06T13:05:11;102563.28;;;11.50;100.00